Time;durP1;ratioP1;P1;durP2;ratioP2;P2;SDS_P1;SDS_P2;PMS_P1;PMS_P2;Temp;Humidity;BMP_temperature;BMP_pressure;BME280_temperature;BME280_humidity;BME280_pressure;Samples;Min_cycle;Max_cycle;Signal;HPM_P1;HPM_P2
2022/05/12 00:00:23;;;;;;;12.20;9.20;;;;;;;14.88;75.62;98618.38;104957;1271;62126;-72
2022/05/12 00:03:05;;;;;;;10.50;9.50;;;;;;;14.86;76.07;98617.40;105033;1271;75096;-70
2022/05/12 00:05:31;;;;;;;10.60;9.60;;;;;;;14.83;76.06;98617.84;104999;1271;69186;-70
2022/05/12 00:07:58;;;;;;;11.80;10.60;;;;;;;14.81;76.30;98618.08;104961;1271;61365;-70
2022/05/12 00:10:25;;;;;;;13.30;10.60;;;;;;;14.76;76.52;98613.66;104968;1271;61374;-71
2022/05/12 00:12:53;;;;;;;10.50;9.60;;;;;;;14.70;76.61;98613.61;104990;1271;62139;-72
2022/05/12 00:15:26;;;;;;;10.20;9.20;;;;;;;14.64;76.61;98616.34;105110;1271;74709;-72
2022/05/12 00:17:53;;;;;;;9.60;8.70;;;;;;;14.56;76.93;98615.23;105007;1271;69687;-71
2022/05/12 00:20:22;;;;;;;10.40;9.50;;;;;;;14.49;77.24;98611.54;104824;1271;74175;-70
2022/05/12 00:22:49;;;;;;;11.10;10.10;;;;;;;14.41;77.66;98609.92;104978;1271;61285;-71
2022/05/12 00:25:23;;;;;;;12.00;10.80;;;;;;;14.33;78.20;98607.42;105037;1271;61337;-69
2022/05/12 00:27:50;;;;;;;11.20;10.10;;;;;;;14.29;78.52;98607.77;105006;1271;75356;-70
2022/05/12 00:30:16;;;;;;;11.50;10.30;;;;;;;14.25;79.02;98603.64;104987;1271;69192;-72
2022/05/12 00:32:45;;;;;;;11.10;10.00;;;;;;;14.22;79.04;98602.67;105028;1271;72858;-70
2022/05/12 00:35:13;;;;;;;10.80;9.80;;;;;;;14.19;79.25;98602.09;105109;1271;61380;-70
2022/05/12 00:37:40;;;;;;;11.00;9.90;;;;;;;14.15;79.35;98603.98;104874;1271;61696;-72
2022/05/12 00:40:08;;;;;;;11.70;10.50;;;;;;;14.09;79.65;98599.17;105023;1271;61275;-70
2022/05/12 00:42:34;;;;;;;11.70;10.60;;;;;;;14.03;79.77;98597.60;104770;1271;70118;-71
2022/05/12 00:45:01;;;;;;;13.10;11.50;;;;;;;13.99;79.87;98600.08;105034;1271;61200;-71
2022/05/12 00:47:27;;;;;;;13.90;12.30;;;;;;;13.94;80.23;98597.61;105002;1271;61326;-71
2022/05/12 00:49:54;;;;;;;12.50;11.30;;;;;;;13.90;80.49;98596.04;105051;1271;61249;-72
2022/05/12 00:52:26;;;;;;;12.90;11.10;;;;;;;13.86;80.57;98596.20;105013;1271;75310;-71
2022/05/12 00:54:59;;;;;;;12.60;11.40;;;;;;;13.82;80.96;98596.13;105016;1271;69444;-71
2022/05/12 00:57:34;;;;;;;11.90;10.70;;;;;;;13.80;81.51;98590.63;105010;1271;74200;-72
2022/05/12 01:00:05;;;;;;;12.40;11.20;;;;;;;13.78;81.82;98593.64;105089;1271;61400;-70
2022/05/12 01:02:33;;;;;;;13.20;10.80;;;;;;;13.76;81.85;98591.12;104864;1271;61734;-71
2022/05/12 01:05:00;;;;;;;13.30;11.40;;;;;;;13.77;81.85;98592.65;105060;1271;76513;-70
2022/05/12 01:07:27;;;;;;;13.10;11.20;;;;;;;13.78;82.32;98593.70;105014;1271;70261;-71
2022/05/12 01:09:54;;;;;;;12.30;10.90;;;;;;;13.77;82.45;98591.58;104962;1271;74282;-72
2022/05/12 01:12:22;;;;;;;11.80;10.70;;;;;;;13.76;83.05;98592.38;105023;1271;61505;-71
2022/05/12 01:14:48;;;;;;;13.00;11.30;;;;;;;13.74;83.09;98591.35;105011;1271;61169;-71
2022/05/12 01:17:17;;;;;;;12.80;11.60;;;;;;;13.71;83.03;98590.17;104991;1271;76413;-73
2022/05/12 01:19:44;;;;;;;12.00;10.90;;;;;;;13.67;83.18;98588.00;105034;1271;69196;-72
2022/05/12 01:22:25;;;;;;;13.90;12.50;;;;;;;13.64;83.24;98585.23;104978;1271;61444;-71
2022/05/12 01:24:52;;;;;;;12.10;10.80;;;;;;;13.63;83.38;98583.40;104975;1271;61196;-72
2022/05/12 01:27:19;;;;;;;11.60;10.40;;;;;;;13.61;83.37;98579.57;105034;1271;61371;-72
2022/05/12 01:29:54;;;;;;;11.60;10.10;;;;;;;13.59;83.39;98575.30;104998;1271;76202;-71
2022/05/12 01:32:25;;;;;;;12.90;11.60;;;;;;;13.55;83.46;98575.42;105039;1271;70677;-72
2022/05/12 01:34:55;;;;;;;11.90;10.60;;;;;;;13.50;83.38;98576.03;105017;1271;74256;-72
2022/05/12 01:37:23;;;;;;;13.30;11.70;;;;;;;13.50;83.14;98574.67;105074;1271;61285;-71
2022/05/12 01:39:50;;;;;;;14.10;12.10;;;;;;;13.50;83.01;98571.58;104813;1271;61386;-71
2022/05/12 01:42:17;;;;;;;13.60;11.90;;;;;;;13.51;83.08;98569.88;105014;1271;76314;-72
2022/05/12 01:44:43;;;;;;;12.30;11.10;;;;;;;13.53;83.12;98571.55;104997;1271;69906;-71
2022/05/12 01:47:11;;;;;;;11.90;10.70;;;;;;;13.55;83.12;98567.61;105023;1271;61157;-71
2022/05/12 01:49:38;;;;;;;9.60;8.60;;;;;;;13.57;83.00;98566.88;105050;1271;61394;-70
2022/05/12 01:52:06;;;;;;;9.50;8.60;;;;;;;13.61;82.24;98568.14;104946;1271;61278;-71
2022/05/12 01:54:32;;;;;;;11.10;8.50;;;;;;;13.66;81.81;98564.94;104988;1271;75613;-70
2022/05/12 01:56:59;;;;;;;8.50;7.30;;;;;;;13.68;81.50;98563.61;104938;1271;70453;-70
2022/05/12 01:59:26;;;;;;;9.60;7.00;;;;;;;13.72;81.02;98559.05;104769;1271;61367;-72
2022/05/12 02:01:55;;;;;;;8.50;7.60;;;;;;;13.75;80.71;98563.05;105014;1271;61301;-72
2022/05/12 02:04:22;;;;;;;7.60;6.10;;;;;;;13.78;80.73;98563.13;105063;1271;61379;-72
2022/05/12 02:06:49;;;;;;;6.50;5.90;;;;;;;13.82;80.17;98562.45;104998;1271;75123;-71
2022/05/12 02:09:16;;;;;;;7.00;6.30;;;;;;;13.86;80.24;98563.90;104802;1270;61380;-70
2022/05/12 02:11:43;;;;;;;6.60;5.70;;;;;;;13.91;79.90;98563.27;104837;1271;72407;-70
2022/05/12 02:14:10;;;;;;;6.90;6.10;;;;;;;13.95;79.31;98558.64;104814;1271;61302;-71
2022/05/12 02:16:37;;;;;;;7.20;5.40;;;;;;;13.99;78.89;98555.61;104956;1271;61304;-71
2022/05/12 02:19:06;;;;;;;7.60;6.40;;;;;;;14.00;78.92;98552.08;104990;1271;61281;-71
2022/05/12 02:21:33;;;;;;;7.00;5.70;;;;;;;14.04;78.44;98559.38;104694;1273;69225;-72
2022/05/12 02:24:00;;;;;;;6.10;5.40;;;;;;;14.15;78.07;98562.73;105015;1271;73214;-72
2022/05/12 02:26:27;;;;;;;6.80;4.80;;;;;;;14.24;77.79;98562.27;104949;1271;61389;-69
2022/05/12 02:28:54;;;;;;;8.10;4.90;;;;;;;14.32;77.21;98564.23;104747;1272;61293;-71
2022/05/12 02:31:21;;;;;;;7.80;5.60;;;;;;;14.37;76.84;98559.58;104823;1271;75542;-71
2022/05/12 02:33:48;;;;;;;7.90;5.00;;;;;;;14.40;76.27;98561.89;104799;1271;69178;-71
2022/05/12 02:36:15;;;;;;;5.60;4.80;;;;;;;14.44;76.22;98559.80;104799;1271;72471;-71
2022/05/12 02:38:41;;;;;;;5.70;5.10;;;;;;;14.48;75.87;98562.98;104792;1271;61275;-71
2022/05/12 02:41:08;;;;;;;7.00;5.20;;;;;;;14.51;75.42;98561.83;105039;1271;61264;-71
2022/05/12 02:43:34;;;;;;;5.40;4.90;;;;;;;14.54;75.20;98558.38;104954;1271;76231;-71
2022/05/12 02:46:07;;;;;;;5.50;5.00;;;;;;;14.57;74.90;98559.19;104983;1271;61335;-70
2022/05/12 02:48:40;;;;;;;6.30;4.80;;;;;;;14.58;74.90;98557.66;105034;1271;73187;-72
2022/05/12 02:51:08;;;;;;;6.20;5.20;;;;;;;14.60;74.45;98555.89;105081;1271;61337;-70
2022/05/12 02:53:34;;;;;;;7.10;5.40;;;;;;;14.61;74.37;98558.31;105098;1271;62060;-71
2022/05/12 02:56:02;;;;;;;5.60;5.10;;;;;;;14.66;74.24;98555.90;105021;1271;74897;-70
2022/05/12 02:58:29;;;;;;;5.90;5.30;;;;;;;14.70;74.12;98556.39;105039;1271;69215;-71
2022/05/12 03:00:57;;;;;;;5.60;5.10;;;;;;;14.73;74.21;98553.59;105036;1271;74295;-70
2022/05/12 03:03:24;;;;;;;6.80;5.10;;;;;;;14.77;73.81;98550.44;105024;1271;61337;-72
2022/05/12 03:05:51;;;;;;;6.10;4.90;;;;;;;14.80;73.68;98553.05;105031;1271;62123;-70
2022/05/12 03:08:19;;;;;;;5.30;4.90;;;;;;;14.83;73.77;98549.53;105048;1271;75270;-70
2022/05/12 03:10:47;;;;;;;6.90;4.70;;;;;;;14.87;73.70;98552.34;104781;1271;69178;-71
2022/05/12 03:13:14;;;;;;;5.30;4.80;;;;;;;14.91;73.66;98555.52;105025;1271;73247;-71
2022/05/12 03:15:40;;;;;;;6.30;5.10;;;;;;;14.99;73.52;98556.31;105034;1271;61405;-71
2022/05/12 03:18:07;;;;;;;5.70;5.20;;;;;;;15.05;73.38;98546.98;105014;1271;61383;-72
2022/05/12 03:20:33;;;;;;;5.70;5.10;;;;;;;15.11;73.10;98547.92;104857;1271;75294;-73
2022/05/12 03:23:01;;;;;;;7.00;5.00;;;;;;;15.18;72.90;98552.36;105003;1271;69592;-72
2022/05/12 03:25:28;;;;;;;5.30;4.80;;;;;;;15.25;72.53;98552.04;105020;1271;74735;-70
2022/05/12 03:27:54;;;;;;;10.80;9.30;;;;;;;15.37;72.53;98552.05;105000;1271;61369;-71
2022/05/12 03:30:24;;;;;;;6.90;6.10;;;;;;;15.73;72.25;98550.11;104984;1271;61332;-71
2022/05/12 03:32:52;;;;;;;6.10;5.30;;;;;;;16.42;71.11;98552.04;105101;1271;75298;-71
2022/05/12 03:35:19;;;;;;;8.30;5.50;;;;;;;17.05;69.83;98551.70;105023;1271;70305;-70
2022/05/12 03:37:46;;;;;;;7.50;5.20;;;;;;;17.65;68.72;98547.13;105042;1271;73418;-70
2022/05/12 03:40:17;;;;;;;7.20;5.40;;;;;;;18.25;67.23;98550.63;105025;1271;61413;-71
2022/05/12 03:42:45;;;;;;;9.00;5.80;;;;;;;18.82;65.87;98545.68;105147;1271;61271;-73
2022/05/12 03:45:13;;;;;;;9.10;5.50;;;;;;;19.38;64.58;98537.17;105041;1271;75209;-72
2022/05/12 03:47:41;;;;;;;5.80;4.70;;;;;;;19.87;63.44;98535.71;105100;1271;69608;-71
2022/05/12 03:50:13;;;;;;;5.90;5.00;;;;;;;20.41;61.94;98532.61;105060;1271;72784;-71
2022/05/12 03:52:39;;;;;;;5.60;5.10;;;;;;;20.92;60.65;98534.63;105057;1271;61388;-70
2022/05/12 03:55:08;;;;;;;6.00;5.10;;;;;;;21.41;59.46;98524.23;105047;1271;61256;-71
2022/05/12 03:57:35;;;;;;;6.10;4.60;;;;;;;21.82;58.17;98526.71;104942;1271;74755;-71
2022/05/12 04:00:03;;;;;;;5.40;4.70;;;;;;;22.23;57.10;98527.01;105032;1271;68737;-74
2022/05/12 04:02:30;;;;;;;5.50;4.80;;;;;;;22.66;55.97;98524.88;105132;1271;73228;-72
2022/05/12 04:04:56;;;;;;;4.80;4.40;;;;;;;23.13;54.92;98522.20;105049;1271;61279;-72
2022/05/12 04:07:23;;;;;;;6.30;5.00;;;;;;;23.55;53.97;98526.09;105016;1271;61374;-72
2022/05/12 04:09:50;;;;;;;6.60;4.90;;;;;;;23.98;52.77;98526.04;104825;1271;76147;-72
2022/05/12 04:12:17;;;;;;;5.50;5.00;;;;;;;24.25;51.61;98527.48;105028;1271;68204;-72
2022/05/12 04:14:44;;;;;;;6.50;4.80;;;;;;;24.58;50.90;98526.75;105105;1271;72124;-70
2022/05/12 04:17:15;;;;;;;5.60;4.90;;;;;;;24.95;50.38;98529.19;104993;1271;61313;-70
2022/05/12 04:19:45;;;;;;;9.20;5.40;;;;;;;25.38;49.37;98524.58;104883;1271;61813;-72
2022/05/12 04:22:13;;;;;;;9.40;6.00;;;;;;;25.67;48.67;98523.39;105156;1271;75301;-72
2022/05/12 04:24:39;;;;;;;6.40;5.30;;;;;;;25.87;48.24;98528.60;105016;1271;69331;-72
2022/05/12 04:27:06;;;;;;;7.50;6.00;;;;;;;26.03;47.94;98528.09;105027;1271;61275;-71
2022/05/12 04:29:37;;;;;;;7.60;5.70;;;;;;;26.25;47.90;98531.31;105002;1271;61323;-71
2022/05/12 04:32:04;;;;;;;11.90;6.10;;;;;;;26.47;46.74;98531.08;104972;1271;61288;-71
2022/05/12 04:37:16;;;;;;;6.50;5.60;;;;;;;26.41;46.02;98539.16;105036;1271;70313;-71
2022/05/12 04:39:43;;;;;;;8.40;5.50;;;;;;;26.67;46.08;98538.92;105034;1271;61394;-71
2022/05/12 04:42:09;;;;;;;6.00;5.40;;;;;;;26.94;45.52;98536.08;105051;1271;61475;-72
2022/05/12 04:44:36;;;;;;;7.50;5.50;;;;;;;27.18;45.26;98537.84;105028;1271;61246;-71
2022/05/12 04:47:03;;;;;;;5.00;4.60;;;;;;;27.42;44.68;98534.90;104988;1271;61253;-71
2022/05/12 04:49:29;;;;;;;6.60;4.80;;;;;;;27.67;44.05;98530.14;105008;1271;69254;-71
2022/05/12 04:51:57;;;;;;;5.20;4.60;;;;;;;27.88;43.19;98528.33;104796;1271;61272;-70
2022/05/12 04:54:24;;;;;;;7.40;4.30;;;;;;;28.03;42.83;98531.02;105016;1271;61388;-71
2022/05/12 04:56:51;;;;;;;8.60;4.30;;;;;;;28.19;42.57;98534.48;105006;1271;61271;-71
2022/05/12 04:59:17;;;;;;;6.50;4.00;;;;;;;28.32;41.83;98537.81;105043;1271;61409;-71
2022/05/12 05:01:44;;;;;;;4.10;3.60;;;;;;;28.38;41.34;98538.16;104912;1271;61374;-73
2022/05/12 05:04:10;;;;;;;6.40;4.60;;;;;;;28.46;41.28;98545.88;105000;1271;73695;-71
2022/05/12 05:06:37;;;;;;;6.80;4.50;;;;;;;28.56;40.82;98548.59;104803;1271;61301;-73
2022/05/12 05:09:05;;;;;;;4.20;3.90;;;;;;;28.71;40.58;98548.63;105022;1271;61205;-72
2022/05/12 05:11:36;;;;;;;6.80;4.50;;;;;;;28.87;40.54;98546.30;104981;1271;75678;-72
2022/05/12 05:14:04;;;;;;;6.30;4.00;;;;;;;29.03;40.01;98548.96;105038;1271;68167;-71
2022/05/12 05:16:30;;;;;;;7.50;4.30;;;;;;;29.19;39.81;98549.54;104902;1271;73562;-71
2022/05/12 05:18:57;;;;;;;5.20;4.00;;;;;;;29.31;39.56;98546.99;104999;1271;61275;-72
2022/05/12 05:21:23;;;;;;;7.40;4.30;;;;;;;29.46;39.34;98545.99;105025;1271;61290;-71
2022/05/12 05:23:49;;;;;;;7.00;4.60;;;;;;;29.65;38.90;98549.13;104993;1271;61446;-70
2022/05/12 05:26:16;;;;;;;4.90;4.40;;;;;;;29.82;38.71;98553.11;104994;1271;61410;-72
2022/05/12 05:28:42;;;;;;;4.50;4.00;;;;;;;29.85;37.95;98551.16;104974;1271;61280;-71
2022/05/12 05:31:09;;;;;;;7.00;3.80;;;;;;;29.87;37.83;98554.55;104766;1271;61339;-71
2022/05/12 05:33:36;;;;;;;4.10;3.50;;;;;;;29.86;37.48;98552.74;104872;1271;61327;-72
2022/05/12 05:36:02;;;;;;;5.10;3.80;;;;;;;29.93;37.44;98547.60;104973;1271;76375;-72
2022/05/12 05:38:29;;;;;;;6.70;3.60;;;;;;;30.07;37.04;98547.60;104990;1271;67781;-72
2022/05/12 05:40:56;;;;;;;3.90;3.30;;;;;;;30.02;36.27;98548.80;104986;1271;74551;-71
2022/05/12 05:43:23;;;;;;;5.80;3.70;;;;;;;29.94;36.05;98541.44;104922;1271;61402;-72
2022/05/12 05:45:50;;;;;;;3.30;3.00;;;;;;;29.93;35.28;98535.62;105036;1271;61361;-72
2022/05/12 05:48:16;;;;;;;4.80;3.40;;;;;;;29.76;35.12;98540.38;104994;1271;61184;-72
2022/05/12 05:53:33;;;;;;;3.40;3.10;;;;;;;29.77;35.10;98547.83;104983;1271;74327;-71
2022/05/12 05:56:01;;;;;;;4.80;2.90;;;;;;;29.77;34.73;98548.73;104961;1271;61278;-72
2022/05/12 05:58:28;;;;;;;5.20;3.30;;;;;;;29.42;34.03;98552.32;105016;1271;62259;-73
2022/05/12 06:00:55;;;;;;;6.40;3.20;;;;;;;29.29;34.71;98549.42;105124;1271;75133;-70
2022/05/12 06:03:22;;;;;;;4.90;3.70;;;;;;;29.36;34.39;98554.41;105087;1271;61382;-71
2022/05/12 06:05:49;;;;;;;3.90;3.20;;;;;;;29.35;34.35;98555.21;105127;1274;73201;-74
2022/05/12 06:08:17;;;;;;;5.90;3.30;;;;;;;29.33;34.06;98564.15;105033;1271;61365;-76
2022/05/12 06:10:44;;;;;;;8.70;4.00;;;;;;;29.29;34.40;98563.41;105043;1271;61499;-75
2022/05/12 06:13:13;;;;;;;3.60;2.80;;;;;;;29.29;34.30;98566.31;105178;1271;75276;-74
2022/05/12 06:15:40;;;;;;;5.90;3.50;;;;;;;29.22;34.10;98563.05;105497;1271;67289;-77
2022/05/12 06:18:09;;;;;;;3.50;3.20;;;;;;;29.18;34.51;98561.14;105435;1271;72814;-82
2022/05/12 06:20:36;;;;;;;4.90;3.70;;;;;;;29.21;34.62;98556.17;105173;1274;61300;-77
2022/05/12 06:23:03;;;;;;;4.80;3.60;;;;;;;29.19;34.84;98556.98;105312;1274;61557;-78
2022/05/12 06:25:30;;;;;;;5.50;3.20;;;;;;;29.23;34.96;98560.66;105344;1274;76258;-78
2022/05/12 06:27:56;;;;;;;6.30;3.80;;;;;;;29.31;34.99;98557.48;105364;1274;69662;-77
2022/05/12 06:30:23;;;;;;;5.30;3.40;;;;;;;29.29;34.45;98553.19;105165;1274;61252;-77
2022/05/12 06:32:51;;;;;;;3.90;3.00;;;;;;;29.20;34.66;98561.41;104960;1274;61359;-77
2022/05/12 06:35:20;;;;;;;3.40;2.90;;;;;;;29.18;34.42;98564.16;104935;1274;61205;-76
2022/05/12 06:37:46;;;;;;;5.60;3.40;;;;;;;29.15;34.31;98571.05;104891;1274;74615;-77
2022/05/12 06:40:13;;;;;;;5.90;3.90;;;;;;;28.97;34.60;98570.27;104891;1274;61374;-77
2022/05/12 06:42:41;;;;;;;5.20;3.30;;;;;;;28.64;34.63;98575.80;105098;1274;73176;-76
2022/05/12 06:45:10;;;;;;;4.00;3.00;;;;;;;28.20;35.41;98579.38;105151;1274;61394;-77
2022/05/12 06:47:36;;;;;;;4.50;3.40;;;;;;;28.05;35.70;98576.92;104861;1274;61124;-76
2022/05/12 06:50:04;;;;;;;3.40;3.10;;;;;;;28.17;35.76;98576.84;105192;1274;61291;-79
2022/05/12 06:52:31;;;;;;;4.70;3.30;;;;;;;28.34;35.74;98580.33;105190;1274;70191;-76
2022/05/12 06:54:58;;;;;;;4.60;3.90;;;;;;;28.49;36.07;98573.39;105032;1274;74249;-77
2022/05/12 06:57:27;;;;;;;3.70;3.50;;;;;;;28.62;35.42;98560.80;104820;1275;61404;-77
2022/05/12 06:59:55;;;;;;;3.90;3.50;;;;;;;28.76;35.47;98555.78;104868;1275;61814;-76
2022/05/12 07:02:22;;;;;;;3.50;3.20;;;;;;;28.93;35.82;98553.89;104988;1274;76697;-77
2022/05/12 07:04:52;;;;;;;5.20;3.20;;;;;;;29.03;35.71;98543.98;104946;1274;69123;-77
2022/05/12 07:07:20;;;;;;;5.00;3.10;;;;;;;29.08;35.52;98551.16;104984;1274;73150;-77
2022/05/12 07:09:47;;;;;;;3.90;3.40;;;;;;;28.98;35.38;98554.05;105067;1274;61377;-77
2022/05/12 07:12:14;;;;;;;5.90;3.40;;;;;;;28.78;35.92;98551.77;105008;1274;60951;-77
2022/05/12 07:14:40;;;;;;;5.30;3.10;;;;;;;28.61;35.73;98551.23;105021;1274;75171;-76
2022/05/12 07:17:07;;;;;;;10.80;3.60;;;;;;;28.37;35.92;98554.20;104985;1273;61164;-77
2022/05/12 07:19:33;;;;;;;7.70;3.50;;;;;;;28.16;36.09;98554.72;104832;1275;73360;-76
2022/05/12 07:27:36;;;;;;;;;;;;;;;28.09;36.44;98554.49;104743;1274;74455;-78
2022/05/12 07:30:03;;;;;;;4.20;3.60;;;;;;;28.08;36.29;98557.04;104896;1274;69444;-76
2022/05/12 07:32:31;;;;;;;6.70;3.40;;;;;;;28.21;36.28;98562.53;104957;1274;73053;-77
2022/05/12 07:34:58;;;;;;;7.00;3.20;;;;;;;28.37;36.49;98564.73;104840;1274;241420;-76
2022/05/12 07:37:25;;;;;;;6.90;3.30;;;;;;;28.44;35.80;98568.88;104993;1274;61288;-78
2022/05/12 07:39:51;;;;;;;3.30;3.00;;;;;;;28.32;35.65;98576.96;104862;1274;74687;-78
2022/05/12 07:42:18;;;;;;;4.40;3.50;;;;;;;28.31;35.63;98584.87;104962;1274;61205;-76
2022/05/12 07:44:44;;;;;;;4.10;2.80;;;;;;;28.28;35.44;98582.31;104958;1273;61378;-76
2022/05/12 07:47:13;;;;;;;4.30;3.10;;;;;;;28.17;35.49;98579.19;104917;1274;61384;-76
2022/05/12 07:49:41;;;;;;;3.80;2.90;;;;;;;28.24;35.42;98577.10;105020;1274;61253;-76
2022/05/12 07:52:10;;;;;;;8.00;2.90;;;;;;;28.19;35.31;98575.64;104948;1274;75131;-77
2022/05/12 07:54:38;;;;;;;6.00;3.60;;;;;;;28.18;35.59;98580.16;104980;1274;70650;-77
2022/05/12 07:57:04;;;;;;;3.70;3.40;;;;;;;28.26;35.82;98580.92;104935;1274;73782;-75
2022/05/12 07:59:32;;;;;;;6.30;3.30;;;;;;;28.39;36.09;98588.41;104936;1274;61198;-78
2022/05/12 08:01:59;;;;;;;9.00;3.40;;;;;;;28.42;35.08;98583.41;104825;1274;61317;-74
2022/05/12 08:04:27;;;;;;;3.40;2.90;;;;;;;28.48;34.78;98588.84;104980;1274;76564;-76
2022/05/12 08:06:54;;;;;;;5.30;3.50;;;;;;;28.55;34.87;98585.69;105090;1274;69022;-77
2022/05/12 08:09:21;;;;;;;5.30;4.20;;;;;;;28.49;34.65;98593.05;104954;1273;73107;-77
2022/05/12 08:11:47;;;;;;;3.70;3.30;;;;;;;28.26;34.71;98590.58;104960;1274;61306;-78
2022/05/12 08:14:15;;;;;;;4.10;3.50;;;;;;;28.17;35.52;98597.04;104952;1274;61249;-74
2022/05/12 08:16:41;;;;;;;5.70;3.30;;;;;;;28.12;35.38;98603.19;104940;1274;75260;-76
2022/05/12 08:19:08;;;;;;;5.00;3.60;;;;;;;28.01;35.50;98604.82;104932;1274;70098;-77
2022/05/12 08:21:34;;;;;;;6.70;3.60;;;;;;;27.99;35.93;98599.90;104981;1274;74338;-76
2022/05/12 08:24:01;;;;;;;4.40;3.40;;;;;;;28.20;35.94;98599.61;104973;1274;61381;-76
2022/05/12 08:26:27;;;;;;;9.00;3.80;;;;;;;28.30;36.49;98597.55;104832;1274;59964;-76
2022/05/12 08:28:54;;;;;;;4.60;4.10;;;;;;;28.38;36.18;98597.27;104924;1272;61351;-77
2022/05/12 08:31:27;;;;;;;5.40;3.70;;;;;;;28.46;36.21;98596.75;104874;1274;61336;-77
2022/05/12 08:33:54;;;;;;;8.70;4.10;;;;;;;28.39;36.22;98598.63;104815;1274;74324;-76
2022/05/12 08:36:21;;;;;;;11.20;3.50;;;;;;;28.22;35.61;98603.73;104748;1273;61260;-77
2022/05/12 08:38:48;;;;;;;5.80;3.60;;;;;;;28.16;35.87;98608.14;104947;1273;61176;-77
2022/05/12 08:41:26;;;;;;;7.90;3.60;;;;;;;28.19;35.94;98607.69;104940;1274;74976;-76
2022/05/12 08:43:53;;;;;;;4.60;3.20;;;;;;;28.28;35.50;98604.30;104931;1274;69513;-78
2022/05/12 08:46:28;;;;;;;5.10;3.60;;;;;;;28.32;35.64;98605.61;104946;1274;61307;-75
2022/05/12 08:49:22;;;;;;;5.10;3.80;;;;;;;28.42;35.41;98608.29;104938;1274;61392;-76
2022/05/12 08:51:55;;;;;;;7.30;3.80;;;;;;;28.43;35.65;98607.02;104961;1274;61330;-78
2022/05/12 08:54:25;;;;;;;5.90;3.50;;;;;;;28.70;35.09;98609.05;104949;1274;76249;-76
2022/05/12 08:57:05;;;;;;;5.70;3.20;;;;;;;28.68;34.12;98615.99;105009;1274;70181;-77
2022/05/12 08:59:33;;;;;;;7.30;3.40;;;;;;;28.30;33.88;98625.70;104829;1274;73478;-76
2022/05/12 09:02:19;;;;;;;9.20;3.70;;;;;;;28.07;34.79;98620.23;104964;1274;61368;-78
2022/05/12 09:05:02;;;;;;;7.50;3.60;;;;;;;27.95;35.18;98615.03;104965;1274;61416;-77
2022/05/12 09:07:31;;;;;;;5.70;3.40;;;;;;;27.76;35.61;98620.08;104961;1274;75141;-77
2022/05/12 09:10:07;;;;;;;4.50;3.60;;;;;;;27.67;35.61;98619.52;104963;1273;70270;-78
2022/05/12 09:12:59;;;;;;;5.40;3.70;;;;;;;27.62;35.88;98615.10;104922;1274;73367;-78
2022/05/12 09:15:33;;;;;;;4.90;3.30;;;;;;;27.53;35.79;98619.48;104624;1275;63108;-77
2022/05/12 09:18:05;;;;;;;5.00;3.30;;;;;;;27.62;35.86;98617.80;104989;1274;61189;-77
2022/05/12 09:20:35;;;;;;;6.80;3.40;;;;;;;27.71;35.98;98622.31;104932;1274;75165;-78
2022/05/12 09:23:03;;;;;;;6.00;3.20;;;;;;;27.80;35.62;98615.14;104996;1274;68860;-77
2022/05/12 09:25:39;;;;;;;6.60;3.60;;;;;;;27.76;35.98;98617.30;104939;1273;73330;-76
2022/05/12 09:28:33;;;;;;;6.50;3.60;;;;;;;27.81;35.91;98613.95;104887;1274;61291;-76
2022/05/12 09:31:15;;;;;;;9.40;4.50;;;;;;;27.65;35.58;98617.45;105000;1274;61229;-77
2022/05/12 09:33:44;;;;;;;9.60;3.70;;;;;;;27.63;35.89;98622.25;104896;1274;76112;-76
2022/05/12 09:36:21;;;;;;;;;;;;;;;27.66;35.78;98617.17;105015;1274;70331;-77
2022/05/12 09:38:54;;;;;;;4.60;3.50;;;;;;;27.82;36.11;98615.96;104947;1273;74209;-77
2022/05/12 09:41:31;;;;;;;4.80;3.40;;;;;;;27.96;36.08;98620.08;104926;1274;61379;-76
2022/05/12 09:44:09;;;;;;;4.90;3.00;;;;;;;28.01;35.11;98606.20;104778;1274;62206;-78
2022/05/12 09:46:35;;;;;;;6.20;3.10;;;;;;;28.07;34.87;98615.68;104970;1274;75146;-77
2022/05/12 09:49:18;;;;;;;3.80;3.00;;;;;;;28.13;34.86;98611.02;104962;1274;61228;-77
2022/05/12 09:51:46;;;;;;;7.00;3.60;;;;;;;28.16;34.63;98612.36;104949;1272;73361;-77
2022/05/12 09:54:28;;;;;;;4.50;4.00;;;;;;;28.19;35.22;98614.39;104950;1274;61284;-77
2022/05/12 09:57:02;;;;;;;7.00;3.90;;;;;;;28.22;35.14;98614.98;104882;1274;61253;-78
2022/05/12 09:59:32;;;;;;;5.80;3.70;;;;;;;28.23;35.13;98618.77;105042;1274;74694;-76
2022/05/12 10:02:04;;;;;;;;;;;;;;;28.20;34.95;98621.91;104988;1274;68621;-75
2022/05/12 10:10:21;;;;;;;6.50;3.90;;;;;;;28.09;34.25;98625.98;104907;1274;61269;-77
2022/05/12 10:13:03;;;;;;;6.30;3.50;;;;;;;28.18;34.25;98625.31;104972;1274;76409;-78
2022/05/12 10:15:35;;;;;;;7.30;3.30;;;;;;;28.13;33.52;98631.39;104922;1274;70252;-77
2022/05/12 10:18:20;;;;;;;5.80;3.00;;;;;;;28.20;34.34;98628.16;104949;1274;74338;-77
2022/05/12 10:20:52;;;;;;;5.40;3.50;;;;;;;28.34;34.40;98631.77;104947;1274;61384;-77
2022/05/12 10:23:28;;;;;;;6.60;2.90;;;;;;;28.49;34.37;98632.23;105000;1274;61205;-77
2022/05/12 10:26:14;;;;;;;9.40;3.70;;;;;;;28.61;34.53;98627.42;104850;1274;73455;-76
2022/05/12 10:28:47;;;;;;;4.80;3.30;;;;;;;28.72;34.67;98632.62;104738;1274;69934;-76
2022/05/12 10:31:27;;;;;;;7.20;3.20;;;;;;;28.71;34.37;98628.02;104944;1274;74415;-76
2022/05/12 10:34:16;;;;;;;3.70;3.30;;;;;;;28.69;33.02;98625.14;104919;1274;61391;-76
2022/05/12 10:37:03;;;;;;;4.90;3.30;;;;;;;28.71;33.79;98621.19;104780;1274;61320;-78
2022/05/12 10:40:01;;;;;;;6.00;3.60;;;;;;;28.90;34.11;98613.27;104973;1274;75185;-77
